sensor_id;sensor_type;location;lat;lon;timestamp;pressure;altitude;pressure_sealevel;temperature;humidity
70521;BME280;58442;52.716;23.560;2023-06-19T00:00:43;101387.90;;;16.51;78.12
70521;BME280;58442;52.716;23.560;2023-06-19T00:02:54;101388.65;;;16.48;78.28
70521;BME280;58442;52.716;23.560;2023-06-19T00:04:55;101396.50;;;16.49;78.32
70521;BME280;58442;52.716;23.560;2023-06-19T00:06:59;101391.80;;;16.50;78.30
70521;BME280;58442;52.716;23.560;2023-06-19T00:09:01;101392.59;;;16.50;78.30
70521;BME280;58442;52.716;23.560;2023-06-19T00:11:08;101393.38;;;16.51;78.25
70521;BME280;58442;52.716;23.560;2023-06-19T00:13:10;101387.90;;;16.51;78.21
70521;BME280;58442;52.716;23.560;2023-06-19T00:15:11;101385.53;;;16.49;78.14
70521;BME280;58442;52.716;23.560;2023-06-19T00:17:13;101390.60;;;16.47;78.18
70521;BME280;58442;52.716;23.560;2023-06-19T00:19:23;101385.12;;;16.47;78.14
70521;BME280;58442;52.716;23.560;2023-06-19T00:21:25;101390.16;;;16.45;78.15
70521;BME280;58442;52.716;23.560;2023-06-19T00:23:26;101389.38;;;16.45;78.09
70521;BME280;58442;52.716;23.560;2023-06-19T00:25:28;101380.73;;;16.43;78.03
70521;BME280;58442;52.716;23.560;2023-06-19T00:27:38;101382.24;;;16.40;78.02
70521;BME280;58442;52.716;23.560;2023-06-19T00:29:39;101396.34;;;16.38;77.96
70521;BME280;58442;52.716;23.560;2023-06-19T00:31:41;101386.12;;;16.35;77.87
70521;BME280;58442;52.716;23.560;2023-06-19T00:33:45;101382.97;;;16.33;77.89
70521;BME280;58442;52.716;23.560;2023-06-19T00:35:53;101383.69;;;16.30;77.91
70521;BME280;58442;52.716;23.560;2023-06-19T00:37:56;101386.02;;;16.28;77.87
70521;BME280;58442;52.716;23.560;2023-06-19T00:40:01;101374.20;;;16.24;77.84
70521;BME280;58442;52.716;23.560;2023-06-19T00:42:03;101382.02;;;16.22;77.80
70521;BME280;58442;52.716;23.560;2023-06-19T00:44:08;101381.94;;;16.19;77.90
70521;BME280;58442;52.716;23.560;2023-06-19T00:46:10;101381.91;;;16.15;77.94
70521;BME280;58442;52.716;23.560;2023-06-19T00:48:12;101377.95;;;16.12;77.93
70521;BME280;58442;52.716;23.560;2023-06-19T00:50:14;101379.48;;;16.10;77.96
70521;BME280;58442;52.716;23.560;2023-06-19T00:52:22;101383.38;;;16.09;77.98
70521;BME280;58442;52.716;23.560;2023-06-19T00:54:24;101385.34;;;16.08;77.96
70521;BME280;58442;52.716;23.560;2023-06-19T00:56:26;101384.13;;;16.06;77.91
70521;BME280;58442;52.716;23.560;2023-06-19T00:58:27;101375.46;;;16.04;77.89
70521;BME280;58442;52.716;23.560;2023-06-19T01:00:37;101376.21;;;16.01;77.87
70521;BME280;58442;52.716;23.560;2023-06-19T01:02:39;101375.77;;;15.99;77.88
70521;BME280;58442;52.716;23.560;2023-06-19T01:04:40;101373.40;;;15.97;77.90
70521;BME280;58442;52.716;23.560;2023-06-19T01:06:53;101378.10;;;15.97;77.87
70521;BME280;58442;52.716;23.560;2023-06-19T01:09:04;101375.31;;;15.93;77.75
70521;BME280;58442;52.716;23.560;2023-06-19T01:11:18;101365.06;;;15.90;77.78
70521;BME280;58442;52.716;23.560;2023-06-19T01:13:27;101372.09;;;15.88;77.81
70521;BME280;58442;52.716;23.560;2023-06-19T01:15:29;101371.66;;;15.85;77.83
70521;BME280;58442;52.716;23.560;2023-06-19T01:17:32;101376.34;;;15.85;77.84
70521;BME280;58442;52.716;23.560;2023-06-19T01:19:33;101378.29;;;15.84;77.83
70521;BME280;58442;52.716;23.560;2023-06-19T01:21:35;101377.88;;;15.82;77.81
70521;BME280;58442;52.716;23.560;2023-06-19T01:23:37;101378.24;;;15.81;77.81
70521;BME280;58442;52.716;23.560;2023-06-19T01:25:39;101379.42;;;15.80;77.79
70521;BME280;58442;52.716;23.560;2023-06-19T01:27:48;101381.36;;;15.79;77.78
70521;BME280;58442;52.716;23.560;2023-06-19T01:29:50;101379.34;;;15.76;77.80
70521;BME280;58442;52.716;23.560;2023-06-19T01:32:04;101384.81;;;15.76;77.87
70521;BME280;58442;52.716;23.560;2023-06-19T01:34:07;101381.66;;;15.74;77.90
70521;BME280;58442;52.716;23.560;2023-06-19T01:36:10;101382.83;;;15.73;77.95
70521;BME280;58442;52.716;23.560;2023-06-19T01:38:12;101390.67;;;15.75;77.94
70521;BME280;58442;52.716;23.560;2023-06-19T01:40:15;101391.47;;;15.75;77.89
70521;BME280;58442;52.716;23.560;2023-06-19T01:42:18;101398.48;;;15.73;77.90
70521;BME280;58442;52.716;23.560;2023-06-19T01:44:20;101398.82;;;15.71;77.91
70521;BME280;58442;52.716;23.560;2023-06-19T01:46:22;101396.08;;;15.71;77.84
70521;BME280;58442;52.716;23.560;2023-06-19T01:48:24;101394.09;;;15.68;77.88
70521;BME280;58442;52.716;23.560;2023-06-19T01:50:25;101396.83;;;15.68;77.86
70521;BME280;58442;52.716;23.560;2023-06-19T01:52:34;101392.88;;;15.66;77.88
70521;BME280;58442;52.716;23.560;2023-06-19T01:54:35;101392.09;;;15.65;77.87
70521;BME280;58442;52.716;23.560;2023-06-19T01:56:37;101387.32;;;15.62;77.86
70521;BME280;58442;52.716;23.560;2023-06-19T01:58:38;101394.76;;;15.62;77.82
70521;BME280;58442;52.716;23.560;2023-06-19T02:00:49;101393.52;;;15.59;77.82
70521;BME280;58442;52.716;23.560;2023-06-19T02:02:50;101393.07;;;15.57;77.78
70521;BME280;58442;52.716;23.560;2023-06-19T02:04:52;101395.02;;;15.56;77.82
70521;BME280;58442;52.716;23.560;2023-06-19T02:06:53;101389.91;;;15.55;77.84
70521;BME280;58442;52.716;23.560;2023-06-19T02:09:04;101390.27;;;15.53;77.85
70521;BME280;58442;52.716;23.560;2023-06-19T02:11:05;101395.77;;;15.53;77.85
70521;BME280;58442;52.716;23.560;2023-06-19T02:13:07;101393.39;;;15.52;77.85
70521;BME280;58442;52.716;23.560;2023-06-19T02:15:11;101391.78;;;15.51;77.85
70521;BME280;58442;52.716;23.560;2023-06-19T02:17:18;101404.70;;;15.50;77.87
70521;BME280;58442;52.716;23.560;2023-06-19T02:19:20;101391.37;;;15.49;77.85
70521;BME280;58442;52.716;23.560;2023-06-19T02:21:21;101398.01;;;15.48;77.84
70521;BME280;58442;52.716;23.560;2023-06-19T02:23:23;101394.85;;;15.46;77.82
70521;BME280;58442;52.716;23.560;2023-06-19T02:25:33;101397.14;;;15.44;77.84
70521;BME280;58442;52.716;23.560;2023-06-19T02:27:36;101397.50;;;15.42;77.88
70521;BME280;58442;52.716;23.560;2023-06-19T02:29:38;101403.36;;;15.41;77.90
70521;BME280;58442;52.716;23.560;2023-06-19T02:31:39;101405.30;;;15.40;77.91
70521;BME280;58442;52.716;23.560;2023-06-19T02:33:48;101405.68;;;15.39;77.90
70521;BME280;58442;52.716;23.560;2023-06-19T02:35:50;101410.70;;;15.37;77.94
70521;BME280;58442;52.716;23.560;2023-06-19T02:37:51;101406.38;;;15.36;77.99
70521;BME280;58442;52.716;23.560;2023-06-19T02:39:52;101409.92;;;15.36;78.03
70521;BME280;58442;52.716;23.560;2023-06-19T02:42:03;101411.49;;;15.37;78.02
70521;BME280;58442;52.716;23.560;2023-06-19T02:44:05;101418.92;;;15.37;78.02
70521;BME280;58442;52.716;23.560;2023-06-19T02:46:07;101420.88;;;15.36;78.03
70521;BME280;58442;52.716;23.560;2023-06-19T02:48:09;101416.97;;;15.37;78.04
70521;BME280;58442;52.716;23.560;2023-06-19T02:50:17;101415.05;;;15.38;78.02
70521;BME280;58442;52.716;23.560;2023-06-19T02:52:19;101413.45;;;15.37;78.00
70521;BME280;58442;52.716;23.560;2023-06-19T02:54:20;101416.18;;;15.37;78.02
70521;BME280;58442;52.716;23.560;2023-06-19T02:56:22;101423.61;;;15.36;78.04
70521;BME280;58442;52.716;23.560;2023-06-19T02:58:32;101413.45;;;15.37;78.04
70521;BME280;58442;52.716;23.560;2023-06-19T03:00:35;101419.71;;;15.37;78.02
70521;BME280;58442;52.716;23.560;2023-06-19T03:02:36;101427.92;;;15.37;78.00
70521;BME280;58442;52.716;23.560;2023-06-19T03:04:37;101429.88;;;15.37;77.95
70521;BME280;58442;52.716;23.560;2023-06-19T03:06:47;101429.88;;;15.37;77.94
70521;BME280;58442;52.716;23.560;2023-06-19T03:08:49;101428.30;;;15.36;77.92
70521;BME280;58442;52.716;23.560;2023-06-19T03:10:50;101433.77;;;15.36;77.92
70521;BME280;58442;52.716;23.560;2023-06-19T03:12:51;101439.25;;;15.36;77.90
70521;BME280;58442;52.716;23.560;2023-06-19T03:15:02;101439.25;;;15.36;77.89
70521;BME280;58442;52.716;23.560;2023-06-19T03:17:04;101439.25;;;15.36;77.89
70521;BME280;58442;52.716;23.560;2023-06-19T03:19:05;101432.99;;;15.35;77.91
70521;BME280;58442;52.716;23.560;2023-06-19T03:21:07;101438.88;;;15.37;77.95
70521;BME280;58442;52.716;23.560;2023-06-19T03:23:17;101441.28;;;15.39;77.98
70521;BME280;58442;52.716;23.560;2023-06-19T03:25:18;101440.55;;;15.42;77.98
70521;BME280;58442;52.716;23.560;2023-06-19T03:27:21;101435.87;;;15.42;77.97
70521;BME280;58442;52.716;23.560;2023-06-19T03:29:22;101440.17;;;15.43;78.06
70521;BME280;58442;52.716;23.560;2023-06-19T03:31:31;101431.24;;;15.46;78.09
70521;BME280;58442;52.716;23.560;2023-06-19T03:33:33;101431.30;;;15.50;78.11
70521;BME280;58442;52.716;23.560;2023-06-19T03:35:34;101424.66;;;15.51;78.10
70521;BME280;58442;52.716;23.560;2023-06-19T03:37:36;101421.58;;;15.52;78.09
70521;BME280;58442;52.716;23.560;2023-06-19T03:39:46;101423.95;;;15.54;78.11
70521;BME280;58442;52.716;23.560;2023-06-19T03:41:47;101427.11;;;15.56;78.12
70521;BME280;58442;52.716;23.560;2023-06-19T03:43:49;101430.72;;;15.60;78.11
70521;BME280;58442;52.716;23.560;2023-06-19T03:45:50;101435.86;;;15.62;78.02
70521;BME280;58442;52.716;23.560;2023-06-19T03:48:01;101427.97;;;15.60;78.06
70521;BME280;58442;52.716;23.560;2023-06-19T03:50:03;101433.46;;;15.60;78.21
70521;BME280;58442;52.716;23.560;2023-06-19T03:52:05;101433.53;;;15.64;78.23
70521;BME280;58442;52.716;23.560;2023-06-19T03:54:06;101441.41;;;15.65;78.18
70521;BME280;58442;52.716;23.560;2023-06-19T03:56:16;101441.46;;;15.69;78.26
70521;BME280;58442;52.716;23.560;2023-06-19T03:58:17;101436.48;;;15.74;78.28
70521;BME280;58442;52.716;23.560;2023-06-19T04:00:19;101433.44;;;15.79;78.23
70521;BME280;58442;52.716;23.560;2023-06-19T04:02:20;101431.53;;;15.83;78.12
70521;BME280;58442;52.716;23.560;2023-06-19T04:04:31;101437.80;;;15.84;78.10
70521;BME280;58442;52.716;23.560;2023-06-19T04:06:32;101444.07;;;15.84;78.13
70521;BME280;58442;52.716;23.560;2023-06-19T04:08:34;101440.99;;;15.86;78.16
70521;BME280;58442;52.716;23.560;2023-06-19T04:10:35;101444.95;;;15.89;78.17
70521;BME280;58442;52.716;23.560;2023-06-19T04:12:46;101444.20;;;15.92;78.22
70521;BME280;58442;52.716;23.560;2023-06-19T04:14:48;101448.96;;;15.95;78.27
70521;BME280;58442;52.716;23.560;2023-06-19T04:16:50;101456.45;;;15.98;78.28
70521;BME280;58442;52.716;23.560;2023-06-19T04:18:51;101446.71;;;16.00;78.26
70521;BME280;58442;52.716;23.560;2023-06-19T04:21:00;101447.13;;;16.02;78.29
70521;BME280;58442;52.716;23.560;2023-06-19T04:23:02;101443.63;;;16.05;78.32
70521;BME280;58442;52.716;23.560;2023-06-19T04:25:04;101440.55;;;16.07;78.38
70521;BME280;58442;52.716;23.560;2023-06-19T04:27:06;101448.45;;;16.12;78.37
70521;BME280;58442;52.716;23.560;2023-06-19T04:29:15;101450.47;;;16.15;78.33
70521;BME280;58442;52.716;23.560;2023-06-19T04:31:18;101444.61;;;16.17;78.38
70521;BME280;58442;52.716;23.560;2023-06-19T04:33:19;101445.40;;;16.17;78.42
70521;BME280;58442;52.716;23.560;2023-06-19T04:35:22;101449.38;;;16.20;78.45
70521;BME280;58442;52.716;23.560;2023-06-19T04:37:30;101449.43;;;16.23;78.49
70521;BME280;58442;52.716;23.560;2023-06-19T04:39:31;101448.74;;;16.30;78.47
70521;BME280;58442;52.716;23.560;2023-06-19T04:41:32;101449.59;;;16.34;78.45
70521;BME280;58442;52.716;23.560;2023-06-19T04:43:34;101448.48;;;16.38;78.47
70521;BME280;58442;52.716;23.560;2023-06-19T04:45:45;101446.16;;;16.40;78.54
70521;BME280;58442;52.716;23.560;2023-06-19T04:47:46;101444.63;;;16.43;78.64
70521;BME280;58442;52.716;23.560;2023-06-19T04:49:48;101445.90;;;16.49;78.65
70521;BME280;58442;52.716;23.560;2023-06-19T04:51:49;101440.14;;;16.58;78.67
70521;BME280;58442;52.716;23.560;2023-06-19T04:54:00;101441.90;;;16.70;78.55
70521;BME280;58442;52.716;23.560;2023-06-19T04:56:01;101448.65;;;16.76;78.37
70521;BME280;58442;52.716;23.560;2023-06-19T04:58:02;101457.72;;;16.80;78.40
70521;BME280;58442;52.716;23.560;2023-06-19T05:00:07;101447.98;;;16.86;78.40
70521;BME280;58442;52.716;23.560;2023-06-19T05:02:14;101448.92;;;16.97;78.35
70521;BME280;58442;52.716;23.560;2023-06-19T05:04:16;101456.14;;;17.09;78.29
70521;BME280;58442;52.716;23.560;2023-06-19T05:06:17;101451.55;;;17.20;78.18
70521;BME280;58442;52.716;23.560;2023-06-19T05:08:18;101446.19;;;17.31;78.13
70521;BME280;58442;52.716;23.560;2023-06-19T05:10:29;101445.49;;;17.41;78.14
70521;BME280;58442;52.716;23.560;2023-06-19T05:12:30;101447.14;;;17.49;78.16
70521;BME280;58442;52.716;23.560;2023-06-19T05:14:31;101454.31;;;17.57;78.07
70521;BME280;58442;52.716;23.560;2023-06-19T05:16:36;101449.68;;;17.65;78.02
70521;BME280;58442;52.716;23.560;2023-06-19T05:18:44;101448.20;;;17.71;78.11
70521;BME280;58442;52.716;23.560;2023-06-19T05:20:45;101448.27;;;17.78;78.16
70521;BME280;58442;52.716;23.560;2023-06-19T05:22:46;101445.20;;;17.87;78.13
70521;BME280;58442;52.716;23.560;2023-06-19T05:24:48;101451.16;;;17.96;78.06
70521;BME280;58442;52.716;23.560;2023-06-19T05:26:59;101451.99;;;18.03;78.02
70521;BME280;58442;52.716;23.560;2023-06-19T05:29:01;101453.63;;;18.12;78.06
70521;BME280;58442;52.716;23.560;2023-06-19T05:31:03;101450.96;;;18.19;78.00
70521;BME280;58442;52.716;23.560;2023-06-19T05:33:05;101445.52;;;18.26;77.94
70521;BME280;58442;52.716;23.560;2023-06-19T05:35:13;101442.42;;;18.35;77.99
70521;BME280;58442;52.716;23.560;2023-06-19T05:37:16;101452.30;;;18.43;77.98
70521;BME280;58442;52.716;23.560;2023-06-19T05:39:17;101445.66;;;18.51;77.92
70521;BME280;58442;52.716;23.560;2023-06-19T05:41:20;101448.45;;;18.58;77.86
70521;BME280;58442;52.716;23.560;2023-06-19T05:43:28;101439.90;;;18.67;77.76
70521;BME280;58442;52.716;23.560;2023-06-19T05:45:30;101453.70;;;18.74;77.68
70521;BME280;58442;52.716;23.560;2023-06-19T05:47:31;101454.90;;;18.80;77.61
70521;BME280;58442;52.716;23.560;2023-06-19T05:49:32;101454.14;;;18.83;77.53
70521;BME280;58442;52.716;23.560;2023-06-19T05:51:43;101449.84;;;18.89;77.61
70521;BME280;58442;52.716;23.560;2023-06-19T05:53:44;101457.74;;;18.98;77.60
70521;BME280;58442;52.716;23.560;2023-06-19T05:55:47;101447.14;;;19.07;77.50
70521;BME280;58442;52.716;23.560;2023-06-19T05:57:48;101447.20;;;19.18;77.43
70521;BME280;58442;52.716;23.560;2023-06-19T05:59:58;101448.40;;;19.27;77.34
70521;BME280;58442;52.716;23.560;2023-06-19T06:01:59;101449.22;;;19.38;77.23
70521;BME280;58442;52.716;23.560;2023-06-19T06:04:01;101443.73;;;19.46;77.13
70521;BME280;58442;52.716;23.560;2023-06-19T06:06:03;101455.55;;;19.53;77.06
70521;BME280;58442;52.716;23.560;2023-06-19T06:08:12;101452.84;;;19.60;76.97
70521;BME280;58442;52.716;23.560;2023-06-19T06:10:14;101456.40;;;19.64;76.79
70521;BME280;58442;52.716;23.560;2023-06-19T06:12:17;101461.50;;;19.62;76.82
70521;BME280;58442;52.716;23.560;2023-06-19T06:14:18;101466.62;;;19.60;76.86
70521;BME280;58442;52.716;23.560;2023-06-19T06:16:27;101460.30;;;19.56;77.12
70521;BME280;58442;52.716;23.560;2023-06-19T06:18:28;101469.38;;;19.60;77.10
70521;BME280;58442;52.716;23.560;2023-06-19T06:20:30;101465.85;;;19.67;76.99
70521;BME280;58442;52.716;23.560;2023-06-19T06:22:31;101470.98;;;19.76;76.89
70521;BME280;58442;52.716;23.560;2023-06-19T06:24:42;101467.44;;;19.82;76.77
70521;BME280;58442;52.716;23.560;2023-06-19T06:26:43;101463.90;;;19.89;76.74
70521;BME280;58442;52.716;23.560;2023-06-19T06:28:45;101467.46;;;20.00;76.60
70521;BME280;58442;52.716;23.560;2023-06-19T06:30:47;101464.32;;;20.05;76.56
70521;BME280;58442;52.716;23.560;2023-06-19T06:32:57;101466.27;;;20.15;76.58
70521;BME280;58442;52.716;23.560;2023-06-19T06:34:59;101466.25;;;20.30;76.48
70521;BME280;58442;52.716;23.560;2023-06-19T06:37:00;101475.35;;;20.48;76.14
70521;BME280;58442;52.716;23.560;2023-06-19T06:39:02;101471.77;;;20.62;75.95
70521;BME280;58442;52.716;23.560;2023-06-19T06:41:12;101485.17;;;20.70;75.80
70521;BME280;58442;52.716;23.560;2023-06-19T06:43:13;101478.42;;;20.79;75.67
70521;BME280;58442;52.716;23.560;2023-06-19T06:45:14;101478.84;;;20.81;75.60
70521;BME280;58442;52.716;23.560;2023-06-19T06:47:15;101478.78;;;20.95;75.28
70521;BME280;58442;52.716;23.560;2023-06-19T06:49:27;101479.48;;;21.13;74.85
70521;BME280;58442;52.716;23.560;2023-06-19T06:51:28;101484.59;;;21.22;74.74
70521;BME280;58442;52.716;23.560;2023-06-19T06:53:30;101478.63;;;21.27;74.63
70521;BME280;58442;52.716;23.560;2023-06-19T06:55:34;101480.60;;;21.34;74.45
70521;BME280;58442;52.716;23.560;2023-06-19T06:57:42;101470.27;;;21.48;73.99
70521;BME280;58442;52.716;23.560;2023-06-19T06:59:43;101461.48;;;21.61;73.83
70521;BME280;58442;52.716;23.560;2023-06-19T07:01:44;101466.59;;;21.69;73.50
70521;BME280;58442;52.716;23.560;2023-06-19T07:03:46;101468.52;;;21.76;73.44
70521;BME280;58442;52.716;23.560;2023-06-19T07:05:57;101473.17;;;21.86;73.17
70521;BME280;58442;52.716;23.560;2023-06-19T07:07:58;101475.09;;;21.96;72.92
70521;BME280;58442;52.716;23.560;2023-06-19T07:09:59;101476.20;;;22.02;72.64
70521;BME280;58442;52.716;23.560;2023-06-19T07:12:01;101475.56;;;21.84;73.05
70521;BME280;58442;52.716;23.560;2023-06-19T07:14:11;101472.50;;;21.68;73.31
70521;BME280;58442;52.716;23.560;2023-06-19T07:16:13;101473.00;;;21.55;73.34
70521;BME280;58442;52.716;23.560;2023-06-19T07:18:14;101473.00;;;21.55;73.15
70521;BME280;58442;52.716;23.560;2023-06-19T07:20:15;101476.93;;;21.58;73.11
70521;BME280;58442;52.716;23.560;2023-06-19T07:22:26;101480.06;;;21.60;72.96
70521;BME280;58442;52.716;23.560;2023-06-19T07:24:27;101486.75;;;21.66;73.00
70521;BME280;58442;52.716;23.560;2023-06-19T07:26:28;101492.23;;;21.77;72.84
70521;BME280;58442;52.716;23.560;2023-06-19T07:28:30;101484.23;;;21.90;72.50
70521;BME280;58442;52.716;23.560;2023-06-19T07:30:41;101493.28;;;21.94;72.21
70521;BME280;58442;52.716;23.560;2023-06-19T07:32:42;101497.30;;;21.82;72.43
70521;BME280;58442;52.716;23.560;2023-06-19T07:34:43;101496.19;;;21.76;72.37
70521;BME280;58442;52.716;23.560;2023-06-19T07:36:45;101497.77;;;21.73;72.27
70521;BME280;58442;52.716;23.560;2023-06-19T07:38:55;101502.56;;;21.66;72.22
70521;BME280;58442;52.716;23.560;2023-06-19T07:40:57;101501.72;;;21.76;71.84
70521;BME280;58442;52.716;23.560;2023-06-19T07:42:58;101498.51;;;21.81;71.73
70521;BME280;58442;52.716;23.560;2023-06-19T07:45:00;101499.69;;;21.83;71.69
70521;BME280;58442;52.716;23.560;2023-06-19T07:47:10;101496.52;;;21.81;71.86
70521;BME280;58442;52.716;23.560;2023-06-19T07:49:12;101496.16;;;21.79;71.81
70521;BME280;58442;52.716;23.560;2023-06-19T07:51:13;101504.04;;;21.81;71.77
70521;BME280;58442;52.716;23.560;2023-06-19T07:53:14;101492.90;;;21.92;71.64
70521;BME280;58442;52.716;23.560;2023-06-19T07:55:25;101499.95;;;22.00;71.54
70521;BME280;58442;52.716;23.560;2023-06-19T07:57:26;101499.95;;;22.03;71.47
70521;BME280;58442;52.716;23.560;2023-06-19T07:59:28;101495.19;;;22.04;71.48
70521;BME280;58442;52.716;23.560;2023-06-19T08:01:29;101499.92;;;22.10;71.24
70521;BME280;58442;52.716;23.560;2023-06-19T08:03:39;101497.15;;;22.10;71.16
70521;BME280;58442;52.716;23.560;2023-06-19T08:05:41;101506.22;;;22.07;71.29
70521;BME280;58442;52.716;23.560;2023-06-19T08:07:42;101500.74;;;22.00;71.50
70521;BME280;58442;52.716;23.560;2023-06-19T08:09:44;101506.74;;;21.92;71.76
70521;BME280;58442;52.716;23.560;2023-06-19T08:11:54;101496.09;;;21.87;71.99
70521;BME280;58442;52.716;23.560;2023-06-19T08:13:55;101510.30;;;21.92;71.92
70521;BME280;58442;52.716;23.560;2023-06-19T08:15:57;101504.71;;;21.99;71.56
70521;BME280;58442;52.716;23.560;2023-06-19T08:17:58;101512.18;;;22.06;71.49
70521;BME280;58442;52.716;23.560;2023-06-19T08:20:09;101506.98;;;22.15;71.32
70521;BME280;58442;52.716;23.560;2023-06-19T08:22:11;101504.55;;;22.24;71.02
70521;BME280;58442;52.716;23.560;2023-06-19T08:24:12;101496.98;;;22.28;70.80
70521;BME280;58442;52.716;23.560;2023-06-19T08:26:13;101494.62;;;22.30;70.77
70521;BME280;58442;52.716;23.560;2023-06-19T08:28:23;101498.05;;;22.42;70.50
70521;BME280;58442;52.716;23.560;2023-06-19T08:30:25;101494.36;;;22.55;69.98
70521;BME280;58442;52.716;23.560;2023-06-19T08:32:26;101493.79;;;22.71;69.50
70521;BME280;58442;52.716;23.560;2023-06-19T08:34:28;101500.80;;;22.83;69.10
70521;BME280;58442;52.716;23.560;2023-06-19T08:36:38;101495.17;;;22.93;68.73
70521;BME280;58442;52.716;23.560;2023-06-19T08:38:40;101492.31;;;23.01;68.48
70521;BME280;58442;52.716;23.560;2023-06-19T08:40:44;101497.77;;;23.08;68.32
70521;BME280;58442;52.716;23.560;2023-06-19T08:42:45;101497.69;;;23.15;68.09
70521;BME280;58442;52.716;23.560;2023-06-19T08:44:53;101492.91;;;23.15;67.92
70521;BME280;58442;52.716;23.560;2023-06-19T08:46:55;101500.16;;;23.06;68.11
70521;BME280;58442;52.716;23.560;2023-06-19T08:48:56;101492.77;;;22.96;68.50
70521;BME280;58442;52.716;23.560;2023-06-19T08:50:57;101485.56;;;23.02;68.55
70521;BME280;58442;52.716;23.560;2023-06-19T08:53:07;101476.61;;;23.21;68.20
70521;BME280;58442;52.716;23.560;2023-06-19T08:55:09;101489.08;;;23.36;67.89
70521;BME280;58442;52.716;23.560;2023-06-19T08:57:11;101490.92;;;23.46;67.71
70521;BME280;58442;52.716;23.560;2023-06-19T08:59:17;101493.59;;;23.54;67.39
70521;BME280;58442;52.716;23.560;2023-06-19T09:01:22;101490.34;;;23.59;66.96
70521;BME280;58442;52.716;23.560;2023-06-19T09:03:27;101491.02;;;23.70;66.59
70521;BME280;58442;52.716;23.560;2023-06-19T09:05:29;101495.25;;;23.78;66.17
70521;BME280;58442;52.716;23.560;2023-06-19T09:07:30;101493.57;;;23.84;65.64
70521;BME280;58442;52.716;23.560;2023-06-19T09:09:37;101494.99;;;23.96;65.57
70521;BME280;58442;52.716;23.560;2023-06-19T09:11:38;101492.14;;;23.99;65.30
70521;BME280;58442;52.716;23.560;2023-06-19T09:13:44;101495.46;;;23.91;65.23
70521;BME280;58442;52.716;23.560;2023-06-19T09:15:47;101505.11;;;23.83;65.24
70521;BME280;58442;52.716;23.560;2023-06-19T09:18:04;101500.48;;;23.72;65.33
70521;BME280;58442;52.716;23.560;2023-06-19T09:20:13;101499.38;;;23.66;65.31
70521;BME280;58442;52.716;23.560;2023-06-19T09:22:17;101496.57;;;23.70;65.08
70521;BME280;58442;52.716;23.560;2023-06-19T09:24:21;101490.28;;;23.66;64.90
70521;BME280;58442;52.716;23.560;2023-06-19T09:26:25;101499.70;;;23.72;64.88
70521;BME280;58442;52.716;23.560;2023-06-19T09:28:28;101498.27;;;23.87;64.62
70521;BME280;58442;52.716;23.560;2023-06-19T09:30:29;101497.65;;;24.03;64.16
70521;BME280;58442;52.716;23.560;2023-06-19T09:32:33;101496.98;;;24.19;63.79
70521;BME280;58442;52.716;23.560;2023-06-19T09:34:36;101495.90;;;24.36;63.16
70521;BME280;58442;52.716;23.560;2023-06-19T09:36:43;101502.72;;;24.55;62.64
70521;BME280;58442;52.716;23.560;2023-06-19T09:38:47;101499.80;;;24.62;62.42
70521;BME280;58442;52.716;23.560;2023-06-19T09:40:49;101501.38;;;24.63;62.48
70521;BME280;58442;52.716;23.560;2023-06-19T09:42:54;101497.34;;;24.68;62.44
70521;BME280;58442;52.716;23.560;2023-06-19T09:47:22;101500.96;;;24.65;62.94
70521;BME280;58442;52.716;23.560;2023-06-19T09:49:28;101510.88;;;24.66;63.18
70521;BME280;58442;52.716;23.560;2023-06-19T09:51:37;101504.39;;;24.72;62.71
70521;BME280;58442;52.716;23.560;2023-06-19T09:53:44;101509.48;;;24.77;62.46
70521;BME280;58442;52.716;23.560;2023-06-19T09:55:50;101506.70;;;24.77;62.28
70521;BME280;58442;52.716;23.560;2023-06-19T09:57:58;101503.05;;;24.80;62.11
70521;BME280;58442;52.716;23.560;2023-06-19T10:00:03;101504.55;;;24.85;61.86
70521;BME280;58442;52.716;23.560;2023-06-19T10:02:15;101508.47;;;24.88;61.68
70521;BME280;58442;52.716;23.560;2023-06-19T10:04:18;101506.47;;;24.88;61.54
70521;BME280;58442;52.716;23.560;2023-06-19T10:06:22;101504.55;;;24.85;61.61
70521;BME280;58442;52.716;23.560;2023-06-19T10:08:30;101507.34;;;24.85;61.53
70521;BME280;58442;52.716;23.560;2023-06-19T10:10:32;101501.69;;;24.89;61.36
70521;BME280;58442;52.716;23.560;2023-06-19T10:12:44;101504.83;;;24.91;61.04
70521;BME280;58442;52.716;23.560;2023-06-19T10:14:48;101509.11;;;24.95;60.86
70521;BME280;58442;52.716;23.560;2023-06-19T10:17:07;101497.84;;;25.02;60.68
70521;BME280;58442;52.716;23.560;2023-06-19T10:19:21;101506.41;;;25.12;60.33
70521;BME280;58442;52.716;23.560;2023-06-19T10:21:23;101508.63;;;25.20;60.04
70521;BME280;58442;52.716;23.560;2023-06-19T10:23:25;101501.77;;;25.25;59.81
70521;BME280;58442;52.716;23.560;2023-06-19T10:25:31;101506.14;;;25.26;59.87
70521;BME280;58442;52.716;23.560;2023-06-19T10:27:37;101498.58;;;25.26;59.95
70521;BME280;58442;52.716;23.560;2023-06-19T10:29:39;101502.49;;;25.29;59.85
70521;BME280;58442;52.716;23.560;2023-06-19T10:31:41;101495.36;;;25.28;59.54
70521;BME280;58442;52.716;23.560;2023-06-19T10:33:43;101495.42;;;25.24;59.48
70521;BME280;58442;52.716;23.560;2023-06-19T10:35:48;101502.64;;;25.22;59.55
70521;BME280;58442;52.716;23.560;2023-06-19T10:37:49;101502.64;;;25.22;59.35
70521;BME280;58442;52.716;23.560;2023-06-19T10:39:51;101499.42;;;25.23;59.20
70521;BME280;58442;52.716;23.560;2023-06-19T10:41:52;101498.98;;;25.25;59.08